createdAt,value
2023-03-10T00:01:36.802Z,9.07
2023-03-10T00:04:07.321Z,14.07
2023-03-10T00:06:39.659Z,8.35
2023-03-10T00:09:12.679Z,9.77
2023-03-10T00:11:43.013Z,9.93
2023-03-10T00:14:13.338Z,9.30
2023-03-10T00:16:44.830Z,17.93
2023-03-10T00:19:15.096Z,11.50
2023-03-10T00:21:45.777Z,10.57
2023-03-10T00:24:18.824Z,10.55
2023-03-10T00:26:49.104Z,14.30
2023-03-10T00:29:20.512Z,11.83
2023-03-10T00:31:50.889Z,9.15
2023-03-10T00:34:26.181Z,7.15
2023-03-10T00:36:56.478Z,8.20
2023-03-10T00:39:29.526Z,11.57
2023-03-10T00:41:59.949Z,11.55
2023-03-10T00:47:01.372Z,11.60
2023-03-10T00:49:32.254Z,6.82
2023-03-10T00:52:02.645Z,17.38
2023-03-10T00:54:35.861Z,10.40
2023-03-10T00:57:10.822Z,10.75
2023-03-10T00:59:50.290Z,10.10
2023-03-10T01:02:24.580Z,13.73
2023-03-10T01:04:55.003Z,8.18
2023-03-10T01:07:25.525Z,6.28
2023-03-10T01:09:58.569Z,11.27
2023-03-10T01:12:29.063Z,6.80
2023-03-10T01:14:59.477Z,9.05
2023-03-10T01:17:29.959Z,10.90
2023-03-10T01:20:01.482Z,11.80
2023-03-10T01:22:32.491Z,9.75
2023-03-10T01:25:05.823Z,6.40
2023-03-10T01:27:36.211Z,8.90
2023-03-10T01:30:07.404Z,9.95
2023-03-10T01:35:08.927Z,9.70
2023-03-10T01:37:39.310Z,8.48
2023-03-10T01:40:18.821Z,7.97
2023-03-10T01:42:49.742Z,10.02
2023-03-10T01:46:04.935Z,7.50
2023-03-10T01:48:39.895Z,7.20
2023-03-10T01:51:13.512Z,6.93
2023-03-10T01:53:43.948Z,5.40
2023-03-10T01:56:17.489Z,9.23
2023-03-10T01:58:49.596Z,5.82
2023-03-10T02:01:21.863Z,6.38
2023-03-10T02:03:57.816Z,11.95
2023-03-10T02:06:29.878Z,9.80
2023-03-10T02:09:03.157Z,4.55
2023-03-10T02:11:37.109Z,4.18
2023-03-10T02:14:08.689Z,6.47
2023-03-10T02:16:39.648Z,6.15
2023-03-10T02:19:21.840Z,4.63
2023-03-10T02:21:59.851Z,6.43
2023-03-10T02:24:41.683Z,3.88
2023-03-10T02:27:22.943Z,5.43
2023-03-10T02:30:02.627Z,10.88
2023-03-10T02:32:41.507Z,8.82
2023-03-10T02:35:12.977Z,5.13
2023-03-10T02:37:53.378Z,4.23
2023-03-10T02:40:34.077Z,5.43
2023-03-10T02:43:21.004Z,8.02
2023-03-10T02:45:57.141Z,4.28
2023-03-10T02:48:34.488Z,9.75
2023-03-10T02:51:12.808Z,7.20
2023-03-10T02:53:44.476Z,5.15
2023-03-10T02:58:50.091Z,6.75
2023-03-10T03:01:20.938Z,6.50
2023-03-10T03:03:52.392Z,6.85
2023-03-10T03:06:23.752Z,3.97
2023-03-10T03:08:54.381Z,6.65
2023-03-10T03:11:27.049Z,4.35
2023-03-10T03:14:00.309Z,4.88
2023-03-10T03:16:31.872Z,4.28
2023-03-10T03:19:05.986Z,6.63
2023-03-10T03:21:36.465Z,5.53
2023-03-10T03:24:07.679Z,4.13
2023-03-10T03:26:38.132Z,2.70
2023-03-10T03:29:20.224Z,5.15
2023-03-10T03:31:53.731Z,4.25
2023-03-10T03:34:28.390Z,4.15
2023-03-10T03:37:02.191Z,5.97
2023-03-10T03:39:37.342Z,3.10
2023-03-10T03:42:11.053Z,4.20
2023-03-10T03:44:51.844Z,2.95
2023-03-10T03:47:22.828Z,4.53
2023-03-10T03:49:53.243Z,3.03
2023-03-10T03:52:23.616Z,4.63
2023-03-10T03:54:54.347Z,4.40
2023-03-10T03:57:25.458Z,3.40
2023-03-10T04:02:30.833Z,4.15
2023-03-10T04:05:11.450Z,4.35
2023-03-10T04:07:43.104Z,2.83
2023-03-10T04:10:19.732Z,5.13
2023-03-10T04:12:50.980Z,3.47
2023-03-10T04:15:27.083Z,4.13
2023-03-10T04:18:00.154Z,2.03
2023-03-10T04:20:31.475Z,2.80
2023-03-10T04:23:02.521Z,3.05
2023-03-10T04:25:36.952Z,4.45
2023-03-10T04:28:08.117Z,3.47
2023-03-10T04:30:45.352Z,2.45
2023-03-10T04:33:16.993Z,3.70
2023-03-10T04:35:51.662Z,5.25
2023-03-10T04:38:25.916Z,17.92
2023-03-10T04:40:58.721Z,5.70
2023-03-10T04:43:33.416Z,5.20
2023-03-10T04:46:08.965Z,3.50
2023-03-10T04:48:39.733Z,2.00
2023-03-10T04:51:13.143Z,3.25
2023-03-10T04:53:50.689Z,3.60
2023-03-10T04:58:55.072Z,5.72
2023-03-10T05:01:33.039Z,2.80
2023-03-10T05:04:10.447Z,3.30
2023-03-10T05:06:40.993Z,5.28
2023-03-10T05:09:25.590Z,3.42
2023-03-10T05:14:27.682Z,3.55
2023-03-10T05:17:00.794Z,4.38
2023-03-10T05:19:34.037Z,4.72
2023-03-10T05:22:05.677Z,4.40
2023-03-10T05:24:37.876Z,3.33
2023-03-10T05:27:08.464Z,2.17
2023-03-10T05:29:41.670Z,2.83
2023-03-10T05:32:21.422Z,5.10
2023-03-10T05:34:52.617Z,2.88
2023-03-10T05:37:23.158Z,2.33
2023-03-10T05:39:53.734Z,2.20
2023-03-10T05:42:25.494Z,2.05
2023-03-10T05:44:56.106Z,2.17
2023-03-10T05:47:29.268Z,2.42
2023-03-10T05:49:59.605Z,3.33
2023-03-10T05:52:30.290Z,1.60
2023-03-10T05:55:00.782Z,2.00
2023-03-10T05:57:31.168Z,4.93
2023-03-10T06:00:01.528Z,2.58
2023-03-10T06:02:36.182Z,1.35
2023-03-10T06:05:06.625Z,2.72
2023-03-10T06:07:38.071Z,2.03
2023-03-10T06:10:10.635Z,5.03
2023-03-10T06:12:41.417Z,2.78
2023-03-10T06:15:13.234Z,3.85
2023-03-10T06:17:46.403Z,1.30
2023-03-10T06:20:17.637Z,2.50
2023-03-10T06:22:48.212Z,2.10
2023-03-10T06:25:18.676Z,3.22
2023-03-10T06:27:49.635Z,4.35
2023-03-10T06:30:20.966Z,3.67
2023-03-10T06:32:53.965Z,2.63
2023-03-10T06:35:24.718Z,4.50
2023-03-10T06:37:55.110Z,6.70
2023-03-10T06:40:26.167Z,1.83
2023-03-10T06:45:26.707Z,2.67
2023-03-10T06:47:59.775Z,2.65
2023-03-10T06:50:36.734Z,2.38
2023-03-10T06:53:07.176Z,2.42
2023-03-10T06:55:41.034Z,1.95
2023-03-10T06:58:11.489Z,2.60
2023-03-10T07:00:42.245Z,3.30
2023-03-10T07:03:15.547Z,2.08
2023-03-10T07:05:45.922Z,2.72
2023-03-10T07:08:16.721Z,2.70
2023-03-10T07:10:47.347Z,4.47
2023-03-10T07:13:20.089Z,1.92
2023-03-10T07:15:51.000Z,1.92
2023-03-10T07:18:27.835Z,1.88
2023-03-10T07:20:59.599Z,3.22
2023-03-10T07:23:30.094Z,3.42
2023-03-10T07:26:01.132Z,3.40
2023-03-10T07:31:06.838Z,2.20
2023-03-10T07:33:42.786Z,2.60
2023-03-10T07:36:18.533Z,4.10
2023-03-10T07:38:49.429Z,3.10
2023-03-10T07:43:56.280Z,2.65
2023-03-10T07:46:26.858Z,5.00
2023-03-10T07:49:04.479Z,3.83
2023-03-10T07:51:36.062Z,2.33
2023-03-10T07:54:06.819Z,2.22
2023-03-10T07:56:37.341Z,4.00
2023-03-10T07:59:07.760Z,3.03
2023-03-10T08:01:38.221Z,2.42
2023-03-10T08:04:12.749Z,3.30
2023-03-10T08:06:43.215Z,2.92
2023-03-10T08:09:13.610Z,4.50
2023-03-10T08:11:43.934Z,2.42
2023-03-10T08:14:15.586Z,3.95
2023-03-10T08:16:45.953Z,3.72
2023-03-10T08:19:19.047Z,3.38
2023-03-10T08:21:49.382Z,3.90
2023-03-10T08:24:19.755Z,2.63
2023-03-10T08:26:50.185Z,2.97
2023-03-10T08:29:20.667Z,2.42
2023-03-10T08:31:51.246Z,4.43
2023-03-10T08:34:24.217Z,4.70
2023-03-10T08:36:55.094Z,2.85
2023-03-10T08:39:27.581Z,4.07
2023-03-10T08:41:58.814Z,3.17
2023-03-10T08:44:29.162Z,4.05
2023-03-10T08:46:59.788Z,2.97
2023-03-10T08:49:32.743Z,3.40
2023-03-10T08:52:03.173Z,4.13
2023-03-10T08:54:33.828Z,6.07
2023-03-10T08:57:04.516Z,4.88
2023-03-10T08:59:34.936Z,3.95
2023-03-10T09:02:05.456Z,2.38
2023-03-10T09:04:38.441Z,3.83
2023-03-10T09:07:08.970Z,7.20
2023-03-10T09:09:39.362Z,4.18
2023-03-10T09:12:10.701Z,7.70
2023-03-10T09:14:42.092Z,3.42
2023-03-10T09:17:12.398Z,4.85
2023-03-10T09:19:45.395Z,3.45
2023-03-10T09:22:15.779Z,4.75
2023-03-10T09:24:46.177Z,3.55
2023-03-10T09:27:16.624Z,3.58
2023-03-10T09:32:37.625Z,4.68
2023-03-10T09:37:41.351Z,3.65
2023-03-10T09:40:18.843Z,2.80
2023-03-10T09:42:51.349Z,4.88
2023-03-10T09:45:29.953Z,4.03
2023-03-10T09:48:28.722Z,6.03
2023-03-10T09:51:05.881Z,2.17
2023-03-10T09:53:54.596Z,4.53
2023-03-10T09:56:31.678Z,3.83
2023-03-10T09:59:08.311Z,4.55
2023-03-10T10:01:39.897Z,3.78
2023-03-10T10:04:14.499Z,2.20
2023-03-10T10:06:51.141Z,2.92
2023-03-10T10:09:32.839Z,6.18
2023-03-10T10:12:15.197Z,4.97
2023-03-10T10:14:56.539Z,3.13
2023-03-10T10:17:53.046Z,3.85
2023-03-10T10:20:33.582Z,5.32
2023-03-10T10:23:09.645Z,4.18
2023-03-10T10:25:42.429Z,6.22
2023-03-10T10:28:27.235Z,3.03
2023-03-10T10:31:14.458Z,4.68
2023-03-10T10:34:00.189Z,6.75
2023-03-10T10:36:33.567Z,4.05
2023-03-10T10:39:28.156Z,5.38
2023-03-10T10:42:15.604Z,3.83
2023-03-10T10:44:48.118Z,6.32
2023-03-10T10:47:33.743Z,3.95
2023-03-10T10:50:22.940Z,7.10
2023-03-10T10:52:56.610Z,5.38
2023-03-10T10:55:36.083Z,3.75
2023-03-10T10:58:10.693Z,7.15
2023-03-10T11:00:42.479Z,3.60
2023-03-10T11:03:29.670Z,3.00
2023-03-10T11:06:03.678Z,3.88
2023-03-10T11:08:40.723Z,5.63
2023-03-10T11:11:32.260Z,5.13
2023-03-10T11:14:32.437Z,5.38
2023-03-10T11:17:09.183Z,7.33
2023-03-10T11:19:59.680Z,5.00
2023-03-10T11:22:40.953Z,9.35
2023-03-10T11:25:25.712Z,5.47
2023-03-10T11:28:13.640Z,4.05
2023-03-10T11:30:51.818Z,5.13
2023-03-10T11:33:31.053Z,4.13
2023-03-10T11:36:10.910Z,3.70
2023-03-10T11:38:46.331Z,5.00
2023-03-10T11:41:20.216Z,4.22
2023-03-10T11:44:02.047Z,5.75
2023-03-10T11:46:39.592Z,4.15
2023-03-10T11:49:12.255Z,4.05
2023-03-10T11:51:48.683Z,4.78
2023-03-10T11:54:26.890Z,4.50
2023-03-10T11:56:58.726Z,5.53
2023-03-10T11:59:34.537Z,7.63
2023-03-10T12:02:14.594Z,5.53
2023-03-10T12:04:51.652Z,5.40
2023-03-10T12:07:28.550Z,6.10
2023-03-10T12:10:02.408Z,4.63
2023-03-10T12:12:36.322Z,6.13
2023-03-10T12:15:19.103Z,5.75
2023-03-10T12:17:50.750Z,7.53
2023-03-10T12:20:31.209Z,4.47
2023-03-10T12:23:03.831Z,4.50
2023-03-10T12:25:50.476Z,3.35
2023-03-10T12:28:29.413Z,6.53
2023-03-10T12:31:07.394Z,4.47
2023-03-10T12:33:56.071Z,4.15
2023-03-10T12:36:39.556Z,6.85
2023-03-10T12:39:40.434Z,3.47
2023-03-10T12:42:39.781Z,3.83
2023-03-10T12:45:28.563Z,4.97
2023-03-10T12:48:07.454Z,3.10
2023-03-10T12:50:47.590Z,4.07
2023-03-10T12:53:33.559Z,3.97
2023-03-10T12:56:25.583Z,3.25
2023-03-10T12:59:11.548Z,3.28
2023-03-10T13:01:59.684Z,2.70
2023-03-10T13:04:33.609Z,2.22
2023-03-10T13:07:05.117Z,3.47
2023-03-10T13:09:42.427Z,4.03
2023-03-10T13:12:19.541Z,3.17
2023-03-10T13:14:57.272Z,6.63
2023-03-10T13:17:32.019Z,4.30
2023-03-10T13:20:10.059Z,3.72
2023-03-10T13:22:40.625Z,4.35
2023-03-10T13:25:17.799Z,2.67
2023-03-10T13:27:51.022Z,2.30
2023-03-10T13:30:24.346Z,2.22
2023-03-10T13:33:01.540Z,1.10
2023-03-10T13:35:38.027Z,1.00
2023-03-10T13:38:16.479Z,7.75
2023-03-10T13:40:49.731Z,1.83
2023-03-10T13:43:38.932Z,0.90
2023-03-10T13:46:17.972Z,2.20
2023-03-10T13:48:50.263Z,1.50
2023-03-10T13:51:31.728Z,1.33
2023-03-10T13:54:22.399Z,2.58
2023-03-10T13:56:55.831Z,4.95
2023-03-10T13:59:29.602Z,2.65
2023-03-10T14:02:02.521Z,3.30
2023-03-10T14:04:52.621Z,3.03
2023-03-10T14:07:28.435Z,1.83
2023-03-10T14:10:17.195Z,2.58
2023-03-10T14:12:49.512Z,1.83
2023-03-10T14:15:29.109Z,2.97
2023-03-10T14:18:21.682Z,1.30
2023-03-10T14:20:52.058Z,1.50
2023-03-10T14:23:38.915Z,1.48
2023-03-10T14:26:19.534Z,2.55
2023-03-10T14:28:49.878Z,2.30
2023-03-10T14:31:25.163Z,2.10
2023-03-10T14:33:55.653Z,3.17
2023-03-10T14:36:27.414Z,2.10
2023-03-10T14:39:00.362Z,1.98
2023-03-10T14:41:31.058Z,1.77
2023-03-10T14:46:33.041Z,2.30
2023-03-10T14:49:03.530Z,2.25
2023-03-10T14:51:36.268Z,1.50
2023-03-10T14:54:19.777Z,2.72
2023-03-10T14:56:52.594Z,2.50
2023-03-10T14:59:23.043Z,3.08
2023-03-10T15:01:53.564Z,2.38
2023-03-10T15:04:24.262Z,1.85
2023-03-10T15:06:54.647Z,16.95
2023-03-10T15:09:27.676Z,2.83
2023-03-10T15:11:59.803Z,3.65
2023-03-10T15:14:30.687Z,2.05
2023-03-10T15:19:34.658Z,3.38
2023-03-10T15:22:05.074Z,5.05
2023-03-10T15:24:38.275Z,2.00
2023-03-10T15:27:08.627Z,3.17
2023-03-10T15:29:39.283Z,2.13
2023-03-10T15:32:10.657Z,2.63
2023-03-10T15:34:41.147Z,2.25
2023-03-10T15:37:12.685Z,2.70
2023-03-10T15:39:45.694Z,1.38
2023-03-10T15:42:16.215Z,2.70
2023-03-10T15:44:46.910Z,1.75
2023-03-10T15:47:17.332Z,5.60
2023-03-10T15:49:47.737Z,3.30
2023-03-10T15:52:18.298Z,4.53
2023-03-10T15:54:51.306Z,3.33
2023-03-10T15:57:21.781Z,1.65
2023-03-10T15:59:52.503Z,3.45
2023-03-10T16:02:22.963Z,2.03
2023-03-10T16:04:53.614Z,2.75
2023-03-10T16:07:24.206Z,1.17
2023-03-10T16:09:57.247Z,1.00
2023-03-10T16:12:27.669Z,1.30
2023-03-10T16:14:58.335Z,2.30
2023-03-10T16:17:31.330Z,5.30
2023-03-10T16:20:12.300Z,1.67
2023-03-10T16:25:22.678Z,1.88
2023-03-10T16:27:53.068Z,3.28
2023-03-10T16:30:24.340Z,3.17
2023-03-10T16:32:54.901Z,2.05
2023-03-10T16:35:25.396Z,1.20
2023-03-10T16:37:55.825Z,1.27
2023-03-10T16:40:28.803Z,1.08
2023-03-10T16:42:59.173Z,1.50
2023-03-10T16:45:29.704Z,2.53
2023-03-10T16:48:00.198Z,4.38
2023-03-10T16:50:30.596Z,1.25
2023-03-10T16:53:01.135Z,1.23
2023-03-10T16:55:34.254Z,2.05
2023-03-10T16:58:04.679Z,2.38
2023-03-10T17:00:35.357Z,1.45
2023-03-10T17:03:05.910Z,1.70
2023-03-10T17:05:36.329Z,1.92
2023-03-10T17:08:06.699Z,2.17
2023-03-10T17:10:39.752Z,1.35
2023-03-10T17:13:10.185Z,1.85
2023-03-10T17:15:40.646Z,2.20
2023-03-10T17:18:11.002Z,3.45
2023-03-10T17:20:41.443Z,1.65
2023-03-10T17:23:11.855Z,1.50
2023-03-10T17:25:45.610Z,2.10
2023-03-10T17:28:16.113Z,2.70
2023-03-10T17:30:46.469Z,3.08
2023-03-10T17:33:17.169Z,1.80
2023-03-10T17:35:47.577Z,3.20
2023-03-10T17:38:17.985Z,3.58
2023-03-10T17:40:50.923Z,8.85
2023-03-10T17:43:33.422Z,2.10
2023-03-10T17:46:07.370Z,1.60
2023-03-10T17:48:38.690Z,4.70
2023-03-10T17:53:39.799Z,2.97
2023-03-10T17:56:13.571Z,2.00
2023-03-10T17:58:44.064Z,2.35
2023-03-10T18:01:17.764Z,2.28
2023-03-10T18:03:48.658Z,3.05
2023-03-10T18:06:22.589Z,2.03
2023-03-10T18:08:56.260Z,2.20
2023-03-10T18:11:31.466Z,2.58
2023-03-10T18:14:03.757Z,2.70
2023-03-10T18:16:37.742Z,3.67
2023-03-10T18:19:10.550Z,2.35
2023-03-10T18:21:41.793Z,2.10
2023-03-10T18:24:14.884Z,2.05
2023-03-10T18:26:47.887Z,1.77
2023-03-10T18:29:18.406Z,2.72
2023-03-10T18:31:48.957Z,1.42
2023-03-10T18:34:20.294Z,5.20
2023-03-10T18:36:51.770Z,3.65
2023-03-10T18:39:22.153Z,2.10
2023-03-10T18:41:56.969Z,1.73
2023-03-10T18:44:27.332Z,4.95
2023-03-10T18:47:00.575Z,1.80
2023-03-10T18:49:31.160Z,1.75
2023-03-10T18:52:02.430Z,2.05
2023-03-10T18:54:33.164Z,1.95
2023-03-10T18:57:06.761Z,2.00
2023-03-10T18:59:37.406Z,1.88
2023-03-10T19:02:08.174Z,1.85
2023-03-10T19:04:43.026Z,1.77
2023-03-10T19:07:14.813Z,2.47
2023-03-10T19:09:45.239Z,2.30
2023-03-10T19:12:18.267Z,2.25
2023-03-10T19:14:48.542Z,2.08
2023-03-10T19:17:18.856Z,2.47
2023-03-10T19:19:49.324Z,1.95
2023-03-10T19:22:19.707Z,3.05
2023-03-10T19:24:50.032Z,3.33
2023-03-10T19:27:23.264Z,2.17
2023-03-10T19:29:55.286Z,2.38
2023-03-10T19:32:25.827Z,2.35
2023-03-10T19:34:56.520Z,6.15
2023-03-10T19:37:26.947Z,4.03
2023-03-10T19:39:57.333Z,1.60
2023-03-10T19:42:30.322Z,2.20
2023-03-10T19:45:00.687Z,1.92
2023-03-10T19:47:33.895Z,3.63
2023-03-10T19:50:04.916Z,1.98
2023-03-10T19:52:36.137Z,2.10
2023-03-10T19:57:42.752Z,2.35
2023-03-10T20:00:17.402Z,3.53
2023-03-10T20:02:48.104Z,1.52
2023-03-10T20:05:18.874Z,1.15
2023-03-10T20:07:49.557Z,5.20
2023-03-10T20:10:21.395Z,1.63
2023-03-10T20:12:54.390Z,1.00
2023-03-10T20:15:24.987Z,1.40
2023-03-10T20:17:56.026Z,3.15
2023-03-10T20:20:26.616Z,1.35
2023-03-10T20:22:57.096Z,1.10
2023-03-10T20:25:29.176Z,1.42
2023-03-10T20:28:04.685Z,1.52
2023-03-10T20:30:37.423Z,2.10
2023-03-10T20:33:08.028Z,1.17
2023-03-10T20:35:39.235Z,2.03
2023-03-10T20:38:09.729Z,1.77
2023-03-10T20:40:40.198Z,2.08
2023-03-10T20:43:13.711Z,2.00
2023-03-10T20:45:44.321Z,2.00
2023-03-10T20:48:14.851Z,1.90
2023-03-10T20:50:45.523Z,2.08
2023-03-10T20:53:15.980Z,4.97
2023-03-10T20:55:46.342Z,1.85
2023-03-10T20:58:19.399Z,2.37
2023-03-10T21:00:51.099Z,2.58
2023-03-10T21:03:22.062Z,3.67
2023-03-10T21:05:52.538Z,2.03
2023-03-10T21:08:23.005Z,2.00
2023-03-10T21:10:53.410Z,2.55
2023-03-10T21:13:26.421Z,5.63
2023-03-10T21:15:56.696Z,2.20
2023-03-10T21:18:27.094Z,2.53
2023-03-10T21:20:57.381Z,3.83
2023-03-10T21:23:27.841Z,2.57
2023-03-10T21:25:58.440Z,2.67
2023-03-10T21:28:31.519Z,2.65
2023-03-10T21:31:01.977Z,2.53
2023-03-10T21:33:32.355Z,3.25
2023-03-10T21:36:02.872Z,2.47
2023-03-10T21:38:33.273Z,8.68
2023-03-10T21:41:03.634Z,2.10
2023-03-10T21:43:36.552Z,2.50
2023-03-10T21:46:07.399Z,2.78
2023-03-10T21:48:37.921Z,1.65
2023-03-10T21:51:09.949Z,3.67
2023-03-10T21:53:40.356Z,7.43
2023-03-10T21:56:11.230Z,2.55
2023-03-10T21:58:44.198Z,2.00
2023-03-10T22:01:17.218Z,3.75
2023-03-10T22:03:47.627Z,3.45
2023-03-10T22:06:18.726Z,2.50
2023-03-10T22:08:49.181Z,2.22
2023-03-10T22:11:20.082Z,4.20
2023-03-10T22:13:53.173Z,2.15
2023-03-10T22:16:26.588Z,2.55
2023-03-10T22:18:56.926Z,3.07
2023-03-10T22:21:27.840Z,3.07
2023-03-10T22:23:59.994Z,3.20
2023-03-10T22:26:30.568Z,3.35
2023-03-10T22:29:03.782Z,4.95
2023-03-10T22:31:34.182Z,5.43
2023-03-10T22:34:04.663Z,2.67
2023-03-10T22:36:35.259Z,5.00
2023-03-10T22:39:06.370Z,2.83
2023-03-10T22:41:38.711Z,2.42
2023-03-10T22:44:11.951Z,2.30
2023-03-10T22:46:42.511Z,3.92
2023-03-10T22:49:12.999Z,2.22
2023-03-10T22:51:44.349Z,2.25
2023-03-10T22:54:14.661Z,2.20
2023-03-10T22:56:45.049Z,2.47
2023-03-10T22:59:18.209Z,1.67
2023-03-10T23:01:48.486Z,1.38
2023-03-10T23:04:19.651Z,1.57
2023-03-10T23:09:20.045Z,2.22
2023-03-10T23:11:50.434Z,1.23
2023-03-10T23:14:23.299Z,1.60
2023-03-10T23:16:53.636Z,1.70
2023-03-10T23:19:23.950Z,2.00
2023-03-10T23:21:54.315Z,2.37
2023-03-10T23:24:24.743Z,2.10
2023-03-10T23:26:55.188Z,2.05
2023-03-10T23:29:28.767Z,1.53
2023-03-10T23:31:59.309Z,1.80
2023-03-10T23:34:29.737Z,2.03
2023-03-10T23:37:00.180Z,1.40
2023-03-10T23:39:30.521Z,2.60
2023-03-10T23:42:00.854Z,1.97
2023-03-10T23:44:33.708Z,2.23
2023-03-10T23:47:04.140Z,3.30
2023-03-10T23:49:34.386Z,2.67
2023-03-10T23:52:04.704Z,3.30
2023-03-10T23:54:35.009Z,4.93
2023-03-10T23:57:05.400Z,3.10
2023-03-10T23:59:38.539Z,3.80
